sensor_id;sensor_type;location;lat;lon;timestamp;pressure;altitude;pressure_sealevel;temperature;humidity
23131;BME280;11734;51.046;13.778;2022-09-09T00:01:25;70761.28;;;15.26;100.00
23131;BME280;11734;51.046;13.778;2022-09-09T00:04:09;70772.84;;;15.24;100.00
23131;BME280;11734;51.046;13.778;2022-09-09T00:15:56;70707.00;;;15.11;100.00
23131;BME280;11734;51.046;13.778;2022-09-09T00:21:16;70723.34;;;15.00;100.00
23131;BME280;11734;51.046;13.778;2022-09-09T00:23:53;70710.06;;;15.00;100.00
23131;BME280;11734;51.046;13.778;2022-09-09T00:26:48;70652.16;;;14.96;100.00
23131;BME280;11734;51.046;13.778;2022-09-09T00:29:40;70686.75;;;14.91;100.00
23131;BME280;11734;51.046;13.778;2022-09-09T00:32:18;70674.34;;;14.90;100.00
23131;BME280;11734;51.046;13.778;2022-09-09T00:34:54;70696.84;;;14.86;100.00
23131;BME280;11734;51.046;13.778;2022-09-09T00:37:24;70683.56;;;14.82;100.00
23131;BME280;11734;51.046;13.778;2022-09-09T00:39:58;70683.56;;;14.82;100.00
23131;BME280;11734;51.046;13.778;2022-09-09T00:43:21;70693.59;;;14.86;100.00
23131;BME280;11734;51.046;13.778;2022-09-09T00:48:02;70704.53;;;14.88;100.00
23131;BME280;11734;51.046;13.778;2022-09-09T00:51:13;70702.75;;;14.87;100.00
23131;BME280;11734;51.046;13.778;2022-09-09T00:54:16;70654.41;;;14.73;100.00
23131;BME280;11734;51.046;13.778;2022-09-09T00:59:28;70642.97;;;14.60;100.00
23131;BME280;11734;51.046;13.778;2022-09-09T01:01:59;70650.72;;;14.53;100.00
23131;BME280;11734;51.046;13.778;2022-09-09T01:04:34;70653.13;;;14.46;100.00
23131;BME280;11734;51.046;13.778;2022-09-09T01:07:17;70637.16;;;14.46;100.00
23131;BME280;11734;51.046;13.778;2022-09-09T01:09:59;70628.97;;;14.39;100.00
23131;BME280;11734;51.046;13.778;2022-09-09T01:12:43;70619.50;;;14.40;100.00
23131;BME280;11734;51.046;13.778;2022-09-09T01:15:31;70607.41;;;14.41;100.00
23131;BME280;11734;51.046;13.778;2022-09-09T01:18:06;70630.69;;;14.45;100.00
23131;BME280;11734;51.046;13.778;2022-09-09T01:26:40;70597.69;;;14.35;100.00
23131;BME280;11734;51.046;13.778;2022-09-09T01:29:18;70630.44;;;14.38;100.00
23131;BME280;11734;51.046;13.778;2022-09-09T01:34:23;70663.13;;;14.50;100.00
23131;BME280;11734;51.046;13.778;2022-09-09T01:36:53;70658.41;;;14.51;100.00
23131;BME280;11734;51.046;13.778;2022-09-09T01:39:24;70637.22;;;14.42;100.00
23131;BME280;11734;51.046;13.778;2022-09-09T01:41:59;70632.19;;;14.44;100.00
23131;BME280;11734;51.046;13.778;2022-09-09T01:44:29;70598.88;;;14.36;100.00
23131;BME280;11734;51.046;13.778;2022-09-09T01:46:57;70641.44;;;14.27;100.00
23131;BME280;11734;51.046;13.778;2022-09-09T01:49:24;70638.47;;;14.29;100.00
23131;BME280;11734;51.046;13.778;2022-09-09T01:51:55;70629.00;;;14.30;100.00
23131;BME280;11734;51.046;13.778;2022-09-09T01:54:35;70610.13;;;14.28;100.00
23131;BME280;11734;51.046;13.778;2022-09-09T01:57:27;70605.09;;;14.30;100.00
23131;BME280;11734;51.046;13.778;2022-09-09T02:05:40;70655.03;;;14.25;100.00
23131;BME280;11734;51.046;13.778;2022-09-09T02:11:16;70610.78;;;14.19;100.00
23131;BME280;11734;51.046;13.778;2022-09-09T02:13:57;70610.53;;;14.12;100.00
23131;BME280;11734;51.046;13.778;2022-09-09T02:16:52;70630.34;;;14.08;100.00
23131;BME280;11734;51.046;13.778;2022-09-09T02:19:32;70611.72;;;14.13;100.00
23131;BME280;11734;51.046;13.778;2022-09-09T02:22:13;70589.56;;;14.14;100.00
23131;BME280;11734;51.046;13.778;2022-09-09T02:24:40;70601.41;;;14.06;100.00
23131;BME280;11734;51.046;13.778;2022-09-09T02:27:22;70570.84;;;13.94;100.00
23131;BME280;11734;51.046;13.778;2022-09-09T02:29:53;70603.19;;;14.08;100.00
23131;BME280;11734;51.046;13.778;2022-09-09T02:32:36;70586.97;;;14.05;100.00
23131;BME280;11734;51.046;13.778;2022-09-09T02:35:15;70568.97;;;14.06;100.00
23131;BME280;11734;51.046;13.778;2022-09-09T02:37:45;70548.16;;;13.86;100.00
23131;BME280;11734;51.046;13.778;2022-09-09T02:40:16;70553.34;;;14.04;100.00
23131;BME280;11734;51.046;13.778;2022-09-09T02:42:49;70569.00;;;14.01;100.00
23131;BME280;11734;51.046;13.778;2022-09-09T02:45:27;70556.72;;;13.86;100.00
23131;BME280;11734;51.046;13.778;2022-09-09T02:48:18;70628.34;;;13.95;100.00
23131;BME280;11734;51.046;13.778;2022-09-09T02:51:16;70566.34;;;14.01;100.00
23131;BME280;11734;51.046;13.778;2022-09-09T02:56:29;70561.69;;;13.93;100.00
23131;BME280;11734;51.046;13.778;2022-09-09T02:58:58;70560.50;;;13.92;100.00
23131;BME280;11734;51.046;13.778;2022-09-09T03:01:26;70573.22;;;13.87;100.00
23131;BME280;11734;51.046;13.778;2022-09-09T03:03:54;70564.41;;;13.84;100.00
23131;BME280;11734;51.046;13.778;2022-09-09T03:06:23;70582.13;;;13.81;100.00
23131;BME280;11734;51.046;13.778;2022-09-09T03:08:58;70526.41;;;13.76;100.00
23131;BME280;11734;51.046;13.778;2022-09-09T03:11:28;70546.22;;;13.68;100.00
23131;BME280;11734;51.046;13.778;2022-09-09T03:13:56;70547.22;;;13.53;100.00
23131;BME280;11734;51.046;13.778;2022-09-09T03:16:25;70486.16;;;13.53;100.00
23131;BME280;11734;51.046;13.778;2022-09-09T03:18:54;70487.59;;;13.56;100.00
23131;BME280;11734;51.046;13.778;2022-09-09T03:21:22;70506.56;;;13.45;100.00
23131;BME280;11734;51.046;13.778;2022-09-09T03:23:49;70480.06;;;13.41;100.00
23131;BME280;11734;51.046;13.778;2022-09-09T03:26:16;70472.22;;;13.27;100.00
23131;BME280;11734;51.046;13.778;2022-09-09T03:28:45;70505.47;;;13.35;100.00
23131;BME280;11734;51.046;13.778;2022-09-09T03:31:17;70520.41;;;13.46;100.00
23131;BME280;11734;51.046;13.778;2022-09-09T03:33:45;70473.38;;;13.23;100.00
23131;BME280;11734;51.046;13.778;2022-09-09T03:36:15;70500.63;;;13.49;100.00
23131;BME280;11734;51.046;13.778;2022-09-09T03:38:42;70495.13;;;13.38;100.00
23131;BME280;11734;51.046;13.778;2022-09-09T03:41:10;70512.69;;;13.53;100.00
23131;BME280;11734;51.046;13.778;2022-09-09T03:43:38;70502.34;;;13.55;100.00
23131;BME280;11734;51.046;13.778;2022-09-09T03:46:06;70505.63;;;13.51;100.00
23131;BME280;11734;51.046;13.778;2022-09-09T03:48:33;70547.47;;;13.55;100.00
23131;BME280;11734;51.046;13.778;2022-09-09T03:51:01;70492.94;;;13.52;100.00
23131;BME280;11734;51.046;13.778;2022-09-09T03:53:32;70512.44;;;13.50;100.00
23131;BME280;11734;51.046;13.778;2022-09-09T03:56:01;70427.78;;;13.09;100.00
23131;BME280;11734;51.046;13.778;2022-09-09T03:58:30;70535.53;;;13.34;100.00
23131;BME280;11734;51.046;13.778;2022-09-09T04:03:36;70489.28;;;13.28;100.00
23131;BME280;11734;51.046;13.778;2022-09-09T04:06:06;70469.19;;;13.34;100.00
23131;BME280;11734;51.046;13.778;2022-09-09T04:08:34;70489.28;;;13.28;100.00
23131;BME280;11734;51.046;13.778;2022-09-09T04:11:03;70505.13;;;13.42;100.00
23131;BME280;11734;51.046;13.778;2022-09-09T04:13:36;70550.50;;;13.44;100.00
23131;BME280;11734;51.046;13.778;2022-09-09T04:16:11;70529.22;;;13.53;100.00
23131;BME280;11734;51.046;13.778;2022-09-09T04:18:42;70505.00;;;13.55;100.00
23131;BME280;11734;51.046;13.778;2022-09-09T04:21:11;70529.84;;;13.49;100.00
23131;BME280;11734;51.046;13.778;2022-09-09T04:23:39;70510.88;;;13.60;100.00
23131;BME280;11734;51.046;13.778;2022-09-09T04:26:07;70531.50;;;13.64;100.00
23131;BME280;11734;51.046;13.778;2022-09-09T04:28:36;70528.22;;;13.68;100.00
23131;BME280;11734;51.046;13.778;2022-09-09T04:31:18;70499.63;;;13.64;100.00
23131;BME280;11734;51.046;13.778;2022-09-09T04:33:52;70500.94;;;13.47;100.00
23131;BME280;11734;51.046;13.778;2022-09-09T04:36:20;70546.72;;;13.82;100.00
23131;BME280;11734;51.046;13.778;2022-09-09T04:38:49;70532.00;;;13.79;100.00
23131;BME280;11734;51.046;13.778;2022-09-09T04:41:17;70527.94;;;13.66;100.00
23131;BME280;11734;51.046;13.778;2022-09-09T04:43:47;70564.63;;;13.91;100.00
23131;BME280;11734;51.046;13.778;2022-09-09T04:46:16;70559.41;;;13.82;100.00
23131;BME280;11734;51.046;13.778;2022-09-09T04:48:44;70613.06;;;13.87;100.00
23131;BME280;11734;51.046;13.778;2022-09-09T04:51:13;70582.13;;;13.81;100.00
23131;BME280;11734;51.046;13.778;2022-09-09T04:53:42;70547.03;;;13.76;100.00
23131;BME280;11734;51.046;13.778;2022-09-09T04:56:14;70544.50;;;14.01;100.00
23131;BME280;11734;51.046;13.778;2022-09-09T04:58:47;70563.03;;;14.10;100.00
23131;BME280;11734;51.046;13.778;2022-09-09T05:01:21;70596.06;;;14.11;100.00
23131;BME280;11734;51.046;13.778;2022-09-09T05:03:51;70618.47;;;14.16;100.00
23131;BME280;11734;51.046;13.778;2022-09-09T05:06:22;70573.16;;;13.96;100.00
23131;BME280;11734;51.046;13.778;2022-09-09T05:08:55;70628.47;;;14.25;100.00
23131;BME280;11734;51.046;13.778;2022-09-09T05:11:29;70647.59;;;14.30;100.00
23131;BME280;11734;51.046;13.778;2022-09-09T05:14:02;70616.25;;;14.40;100.00
23131;BME280;11734;51.046;13.778;2022-09-09T05:16:31;70657.91;;;14.41;100.00
23131;BME280;11734;51.046;13.778;2022-09-09T05:18:58;70651.06;;;14.47;100.00
23131;BME280;11734;51.046;13.778;2022-09-09T05:21:34;70658.09;;;14.53;100.00
23131;BME280;11734;51.046;13.778;2022-09-09T05:24:01;70663.09;;;14.55;100.00
23131;BME280;11734;51.046;13.778;2022-09-09T05:26:30;70659.03;;;14.47;100.00
23131;BME280;11734;51.046;13.778;2022-09-09T05:28:58;70666.91;;;14.60;100.00
23131;BME280;11734;51.046;13.778;2022-09-09T05:31:30;70697.25;;;14.71;100.00
23131;BME280;11734;51.046;13.778;2022-09-09T05:34:01;70718.47;;;14.80;100.00
23131;BME280;11734;51.046;13.778;2022-09-09T05:36:28;70698.34;;;14.85;100.00
23131;BME280;11734;51.046;13.778;2022-09-09T05:38:56;70710.69;;;14.91;100.00
23131;BME280;11734;51.046;13.778;2022-09-09T05:41:25;70744.34;;;14.97;100.00
23131;BME280;11734;51.046;13.778;2022-09-09T05:43:55;70754.34;;;15.06;100.00
23131;BME280;11734;51.046;13.778;2022-09-09T05:46:24;70733.59;;;15.11;100.00
23131;BME280;11734;51.046;13.778;2022-09-09T05:48:53;70759.81;;;15.27;100.00
23131;BME280;11734;51.046;13.778;2022-09-09T05:51:29;70786.19;;;15.20;100.00
23131;BME280;11734;51.046;13.778;2022-09-09T05:54:00;70818.28;;;15.40;100.00
23131;BME280;11734;51.046;13.778;2022-09-09T05:56:31;70732.75;;;15.42;100.00
23131;BME280;11734;51.046;13.778;2022-09-09T05:59:00;70755.84;;;15.39;100.00
23131;BME280;11734;51.046;13.778;2022-09-09T06:01:31;70770.88;;;15.45;100.00
23131;BME280;11734;51.046;13.778;2022-09-09T06:04:01;70783.66;;;15.40;100.00
23131;BME280;11734;51.046;13.778;2022-09-09T06:06:38;70775.91;;;15.52;100.00
23131;BME280;11734;51.046;13.778;2022-09-09T06:09:16;70800.06;;;15.20;100.00
23131;BME280;11734;51.046;13.778;2022-09-09T06:11:44;70851.00;;;15.57;100.00
23131;BME280;11734;51.046;13.778;2022-09-09T06:14:12;70844.38;;;15.74;100.00
23131;BME280;11734;51.046;13.778;2022-09-09T06:16:40;70862.03;;;15.85;100.00
23131;BME280;11734;51.046;13.778;2022-09-09T06:19:16;70859.66;;;15.87;100.00
23131;BME280;11734;51.046;13.778;2022-09-09T06:21:43;70879.72;;;15.95;100.00
23131;BME280;11734;51.046;13.778;2022-09-09T06:24:12;70840.00;;;16.02;100.00
23131;BME280;11734;51.046;13.778;2022-09-09T06:26:40;70912.16;;;16.14;100.00
23131;BME280;11734;51.046;13.778;2022-09-09T06:29:11;70874.28;;;16.09;100.00
23131;BME280;11734;51.046;13.778;2022-09-09T06:31:39;70899.75;;;16.08;100.00
23131;BME280;11734;51.046;13.778;2022-09-09T06:34:13;70893.16;;;16.16;100.00
23131;BME280;11734;51.046;13.778;2022-09-09T06:36:44;70901.50;;;16.10;100.00
23131;BME280;11734;51.046;13.778;2022-09-09T06:39:12;70942.81;;;16.31;100.00
23131;BME280;11734;51.046;13.778;2022-09-09T06:41:42;70945.50;;;16.31;100.00
23131;BME280;11734;51.046;13.778;2022-09-09T06:44:30;70915.84;;;16.33;100.00
23131;BME280;11734;51.046;13.778;2022-09-09T06:47:02;70908.69;;;16.02;100.00
23131;BME280;11734;51.046;13.778;2022-09-09T06:49:31;70961.63;;;16.47;100.00
23131;BME280;11734;51.046;13.778;2022-09-09T06:51:58;70939.94;;;16.59;100.00
23131;BME280;11734;51.046;13.778;2022-09-09T06:54:26;70950.25;;;16.65;100.00
23131;BME280;11734;51.046;13.778;2022-09-09T06:56:55;70982.41;;;16.86;100.00
23131;BME280;11734;51.046;13.778;2022-09-09T06:59:23;70995.66;;;16.95;100.00
23131;BME280;11734;51.046;13.778;2022-09-09T07:01:53;71045.41;;;17.06;100.00
23131;BME280;11734;51.046;13.778;2022-09-09T07:04:22;71007.00;;;16.86;100.00
23131;BME280;11734;51.046;13.778;2022-09-09T07:06:50;70971.34;;;16.63;100.00
23131;BME280;11734;51.046;13.778;2022-09-09T07:09:22;71105.13;;;17.29;100.00
23131;BME280;11734;51.046;13.778;2022-09-09T07:11:53;71093.50;;;17.35;100.00
23131;BME280;11734;51.046;13.778;2022-09-09T07:14:22;71057.56;;;17.39;100.00
23131;BME280;11734;51.046;13.778;2022-09-09T07:17:00;71103.06;;;17.64;100.00
23131;BME280;11734;51.046;13.778;2022-09-09T07:19:33;71116.66;;;17.71;100.00
23131;BME280;11734;51.046;13.778;2022-09-09T07:22:03;71148.09;;;17.75;100.00
23131;BME280;11734;51.046;13.778;2022-09-09T07:24:32;71150.50;;;17.73;100.00
23131;BME280;11734;51.046;13.778;2022-09-09T07:27:00;71156.31;;;17.87;100.00
23131;BME280;11734;51.046;13.778;2022-09-09T07:29:28;71126.03;;;17.84;100.00
23131;BME280;11734;51.046;13.778;2022-09-09T07:31:56;71166.97;;;17.92;100.00
23131;BME280;11734;51.046;13.778;2022-09-09T07:34:29;71214.41;;;18.00;100.00
23131;BME280;11734;51.046;13.778;2022-09-09T07:36:57;71195.34;;;18.07;100.00
23131;BME280;11734;51.046;13.778;2022-09-09T07:39:25;71181.53;;;18.22;100.00
23131;BME280;11734;51.046;13.778;2022-09-09T07:41:54;71210.59;;;18.29;100.00
23131;BME280;11734;51.046;13.778;2022-09-09T07:44:24;71195.41;;;18.32;100.00
23131;BME280;11734;51.046;13.778;2022-09-09T07:47:00;71214.97;;;18.40;100.00
23131;BME280;11734;51.046;13.778;2022-09-09T07:49:33;71191.06;;;18.51;100.00
23131;BME280;11734;51.046;13.778;2022-09-09T07:52:04;71247.72;;;18.65;100.00
23131;BME280;11734;51.046;13.778;2022-09-09T07:54:41;71285.94;;;18.82;100.00
23131;BME280;11734;51.046;13.778;2022-09-09T07:57:09;71351.53;;;18.99;100.00
23131;BME280;11734;51.046;13.778;2022-09-09T07:59:37;71349.28;;;19.18;100.00
23131;BME280;11734;51.046;13.778;2022-09-09T08:02:05;71396.16;;;19.35;100.00
23131;BME280;11734;51.046;13.778;2022-09-09T08:04:35;71428.34;;;19.65;100.00
23131;BME280;11734;51.046;13.778;2022-09-09T08:07:03;71481.13;;;19.92;100.00
23131;BME280;11734;51.046;13.778;2022-09-09T08:09:41;71500.00;;;20.12;100.00
23131;BME280;11734;51.046;13.778;2022-09-09T08:12:17;71517.28;;;20.13;100.00
23131;BME280;11734;51.046;13.778;2022-09-09T08:14:45;71543.88;;;20.41;100.00
23131;BME280;11734;51.046;13.778;2022-09-09T08:17:12;71573.22;;;20.24;100.00
23131;BME280;11734;51.046;13.778;2022-09-09T08:19:39;71573.78;;;20.30;100.00
23131;BME280;11734;51.046;13.778;2022-09-09T08:22:13;71530.63;;;20.22;100.00
23131;BME280;11734;51.046;13.778;2022-09-09T08:24:40;71533.59;;;20.20;100.00
23131;BME280;11734;51.046;13.778;2022-09-09T08:27:08;71535.34;;;20.27;100.00
23131;BME280;11734;51.046;13.778;2022-09-09T08:29:37;71510.41;;;20.14;100.00
23131;BME280;11734;51.046;13.778;2022-09-09T08:32:05;71580.16;;;20.49;100.00
23131;BME280;11734;51.046;13.778;2022-09-09T08:34:33;71596.28;;;20.49;100.00
23131;BME280;11734;51.046;13.778;2022-09-09T08:37:05;71646.53;;;20.96;100.00
23131;BME280;11734;51.046;13.778;2022-09-09T08:39:37;71665.09;;;21.24;100.00
23131;BME280;11734;51.046;13.778;2022-09-09T08:42:25;71690.16;;;21.27;100.00
23131;BME280;11734;51.046;13.778;2022-09-09T08:45:20;71640.69;;;21.17;100.00
23131;BME280;11734;51.046;13.778;2022-09-09T08:50:36;71643.25;;;20.96;100.00
23131;BME280;11734;51.046;13.778;2022-09-09T08:53:24;71631.38;;;20.90;100.00
23131;BME280;11734;51.046;13.778;2022-09-09T08:56:02;71676.88;;;21.08;100.00
23131;BME280;11734;51.046;13.778;2022-09-09T08:59:02;71710.84;;;21.19;100.00
23131;BME280;11734;51.046;13.778;2022-09-09T09:01:50;71692.97;;;21.13;100.00
23131;BME280;11734;51.046;13.778;2022-09-09T09:13:18;71625.09;;;20.92;100.00
23131;BME280;11734;51.046;13.778;2022-09-09T09:16:02;71627.09;;;21.00;100.00
23131;BME280;11734;51.046;13.778;2022-09-09T09:18:34;71662.59;;;21.05;100.00
23131;BME280;11734;51.046;13.778;2022-09-09T09:21:54;71658.97;;;21.07;100.00
23131;BME280;11734;51.046;13.778;2022-09-09T09:24:00;71627.53;;;20.89;100.00
23131;BME280;11734;51.046;13.778;2022-09-09T09:26:34;71584.81;;;20.62;100.00
23131;BME280;11734;51.046;13.778;2022-09-09T09:29:16;71450.97;;;19.66;100.00
23131;BME280;11734;51.046;13.778;2022-09-09T09:35:57;71082.09;;;17.14;100.00
23131;BME280;11734;51.046;13.778;2022-09-09T09:38:29;71058.59;;;16.85;100.00
23131;BME280;11734;51.046;13.778;2022-09-09T09:41:16;71132.09;;;16.93;100.00
23131;BME280;11734;51.046;13.778;2022-09-09T09:43:53;71213.28;;;17.03;100.00
23131;BME280;11734;51.046;13.778;2022-09-09T09:46:24;71321.19;;;17.18;100.00
23131;BME280;11734;51.046;13.778;2022-09-09T09:49:05;71354.41;;;17.23;100.00
23131;BME280;11734;51.046;13.778;2022-09-09T09:51:37;71438.03;;;17.40;100.00
23131;BME280;11734;51.046;13.778;2022-09-09T09:54:30;71711.44;;;17.98;100.00
23131;BME280;11734;51.046;13.778;2022-09-09T09:57:16;72010.56;;;18.61;100.00
23131;BME280;11734;51.046;13.778;2022-09-09T09:59:46;72267.50;;;18.99;100.00
23131;BME280;11734;51.046;13.778;2022-09-09T10:02:24;72999.75;;;20.14;100.00
23131;BME280;11734;51.046;13.778;2022-09-09T10:05:08;73672.97;;;21.05;100.00
23131;BME280;11734;51.046;13.778;2022-09-09T10:07:43;74783.44;;;22.22;100.00
23131;BME280;11734;51.046;13.778;2022-09-09T10:10:20;75691.66;;;23.03;100.00
23131;BME280;11734;51.046;13.778;2022-09-09T10:18:40;77317.44;;;24.41;100.00
23131;BME280;11734;51.046;13.778;2022-09-09T10:25:09;72297.47;;;24.58;100.00
23131;BME280;11734;51.046;13.778;2022-09-09T10:30:19;72594.25;;;26.08;100.00
23131;BME280;11734;51.046;13.778;2022-09-09T10:33:09;72733.94;;;26.81;100.00
23131;BME280;11734;51.046;13.778;2022-09-09T10:38:47;72874.44;;;27.44;76.85
23131;BME280;11734;51.046;13.778;2022-09-09T10:42:05;72887.63;;;27.55;76.72
23131;BME280;11734;51.046;13.778;2022-09-09T10:44:36;73015.06;;;28.17;77.02
23131;BME280;11734;51.046;13.778;2022-09-09T10:50:07;73281.59;;;29.38;68.40
23131;BME280;11734;51.046;13.778;2022-09-09T10:52:57;73408.59;;;29.92;62.66
23131;BME280;11734;51.046;13.778;2022-09-09T10:55:41;73532.41;;;30.46;58.94
23131;BME280;11734;51.046;13.778;2022-09-09T10:58:25;73463.50;;;30.20;55.57
23131;BME280;11734;51.046;13.778;2022-09-09T11:00:59;73505.19;;;30.37;51.98
23131;BME280;11734;51.046;13.778;2022-09-09T11:03:29;73447.09;;;30.25;45.78
23131;BME280;11734;51.046;13.778;2022-09-09T11:06:05;73426.19;;;29.89;50.20
23131;BME280;11734;51.046;13.778;2022-09-09T11:08:37;73436.22;;;29.86;51.32
23131;BME280;11734;51.046;13.778;2022-09-09T11:11:25;73366.13;;;29.59;47.69
23131;BME280;11734;51.046;13.778;2022-09-09T11:14:19;73052.09;;;28.32;52.86
23131;BME280;11734;51.046;13.778;2022-09-09T11:16:50;72821.03;;;27.17;58.56
23131;BME280;11734;51.046;13.778;2022-09-09T11:21:53;72573.91;;;25.96;67.22
23131;BME280;11734;51.046;13.778;2022-09-09T11:27:52;72314.41;;;24.79;72.82
23131;BME280;11734;51.046;13.778;2022-09-09T11:38:16;72321.03;;;24.75;82.37
23131;BME280;11734;51.046;13.778;2022-09-09T11:40:45;72423.19;;;25.39;72.68
23131;BME280;11734;51.046;13.778;2022-09-09T11:43:20;72540.19;;;25.99;66.24
23131;BME280;11734;51.046;13.778;2022-09-09T11:45:52;72623.13;;;26.44;64.50
23131;BME280;11734;51.046;13.778;2022-09-09T11:48:40;72828.75;;;27.29;63.39
23131;BME280;11734;51.046;13.778;2022-09-09T11:51:25;72753.53;;;27.11;62.76
23131;BME280;11734;51.046;13.778;2022-09-09T11:54:00;72628.28;;;26.42;66.79
23131;BME280;11734;51.046;13.778;2022-09-09T11:56:42;72680.38;;;26.72;67.84
23131;BME280;11734;51.046;13.778;2022-09-09T11:59:25;72708.56;;;26.87;66.14
23131;BME280;11734;51.046;13.778;2022-09-09T12:02:14;72547.06;;;26.03;69.43
23131;BME280;11734;51.046;13.778;2022-09-09T12:07:28;72356.13;;;24.84;75.39
23131;BME280;11734;51.046;13.778;2022-09-09T12:10:05;72438.47;;;25.41;74.67
23131;BME280;11734;51.046;13.778;2022-09-09T12:12:36;72519.38;;;25.72;75.61
23131;BME280;11734;51.046;13.778;2022-09-09T12:17:49;72502.22;;;25.74;69.66
23131;BME280;11734;51.046;13.778;2022-09-09T12:20:40;72450.53;;;25.37;73.21
23131;BME280;11734;51.046;13.778;2022-09-09T12:23:24;72421.56;;;25.19;73.62
23131;BME280;11734;51.046;13.778;2022-09-09T12:36:56;72181.28;;;24.03;73.74
23131;BME280;11734;51.046;13.778;2022-09-09T12:39:35;72161.94;;;23.88;75.51
23131;BME280;11734;51.046;13.778;2022-09-09T12:42:14;72149.53;;;23.69;75.98
23131;BME280;11734;51.046;13.778;2022-09-09T12:44:52;72124.19;;;23.84;73.42
23131;BME280;11734;51.046;13.778;2022-09-09T12:47:22;72234.53;;;24.20;76.16
23131;BME280;11734;51.046;13.778;2022-09-09T12:49:56;72204.88;;;24.16;72.64
23131;BME280;11734;51.046;13.778;2022-09-09T12:52:29;72192.88;;;24.15;73.38
23131;BME280;11734;51.046;13.778;2022-09-09T12:55:00;72152.69;;;24.13;73.67
23131;BME280;11734;51.046;13.778;2022-09-09T12:57:38;72192.03;;;24.07;72.99
23131;BME280;11734;51.046;13.778;2022-09-09T13:00:16;72186.28;;;24.14;72.69
23131;BME280;11734;51.046;13.778;2022-09-09T13:02:53;72252.06;;;24.37;70.29
23131;BME280;11734;51.046;13.778;2022-09-09T13:05:23;72270.38;;;24.37;66.42
23131;BME280;11734;51.046;13.778;2022-09-09T13:07:51;72243.78;;;24.26;66.65
23131;BME280;11734;51.046;13.778;2022-09-09T13:10:26;72170.75;;;24.05;69.24
23131;BME280;11734;51.046;13.778;2022-09-09T13:13:17;72105.06;;;23.77;70.42
23131;BME280;11734;51.046;13.778;2022-09-09T13:16:07;72134.94;;;23.88;72.09
23131;BME280;11734;51.046;13.778;2022-09-09T13:18:45;72148.88;;;24.03;72.35
23131;BME280;11734;51.046;13.778;2022-09-09T13:21:13;72192.44;;;24.26;72.22
23131;BME280;11734;51.046;13.778;2022-09-09T13:23:42;72249.69;;;24.35;69.64
23131;BME280;11734;51.046;13.778;2022-09-09T13:26:27;72271.22;;;24.45;70.81
23131;BME280;11734;51.046;13.778;2022-09-09T13:29:07;72245.56;;;24.57;67.37
23131;BME280;11734;51.046;13.778;2022-09-09T13:31:37;72253.25;;;24.68;66.90
23131;BME280;11734;51.046;13.778;2022-09-09T13:34:22;72322.53;;;24.74;66.80
23131;BME280;11734;51.046;13.778;2022-09-09T13:37:05;72260.72;;;24.72;63.00
23131;BME280;11734;51.046;13.778;2022-09-09T13:39:37;72298.03;;;24.63;64.35
23131;BME280;11734;51.046;13.778;2022-09-09T13:42:05;72218.00;;;24.52;65.86
23131;BME280;11734;51.046;13.778;2022-09-09T13:44:39;72208.91;;;24.33;66.93
23131;BME280;11734;51.046;13.778;2022-09-09T13:49:42;72153.03;;;24.06;67.22
23131;BME280;11734;51.046;13.778;2022-09-09T13:54:39;72129.53;;;23.88;66.02
23131;BME280;11734;51.046;13.778;2022-09-09T13:57:15;72164.06;;;23.83;66.60
23131;BME280;11734;51.046;13.778;2022-09-09T13:59:45;72095.75;;;23.80;65.52
23131;BME280;11734;51.046;13.778;2022-09-09T14:02:31;72093.25;;;23.62;66.91
23131;BME280;11734;51.046;13.778;2022-09-09T14:04:58;72096.97;;;23.47;68.63
23131;BME280;11734;51.046;13.778;2022-09-09T14:07:26;71995.22;;;23.34;69.49
23131;BME280;11734;51.046;13.778;2022-09-09T14:09:53;72016.25;;;23.29;69.92
23131;BME280;11734;51.046;13.778;2022-09-09T14:12:21;72016.84;;;23.29;70.27
23131;BME280;11734;51.046;13.778;2022-09-09T14:14:48;72059.38;;;23.29;70.67
23131;BME280;11734;51.046;13.778;2022-09-09T14:17:16;72026.38;;;23.33;70.36
23131;BME280;11734;51.046;13.778;2022-09-09T14:19:44;72011.66;;;23.36;71.15
23131;BME280;11734;51.046;13.778;2022-09-09T14:22:13;72046.09;;;23.40;72.21
23131;BME280;11734;51.046;13.778;2022-09-09T14:24:40;72043.38;;;23.45;71.71
23131;BME280;11734;51.046;13.778;2022-09-09T14:27:08;72108.91;;;23.53;71.09
23131;BME280;11734;51.046;13.778;2022-09-09T14:29:35;72095.38;;;23.57;66.30
23131;BME280;11734;51.046;13.778;2022-09-09T14:32:03;72076.69;;;23.69;65.00
23131;BME280;11734;51.046;13.778;2022-09-09T14:34:36;72118.63;;;23.72;65.91
23131;BME280;11734;51.046;13.778;2022-09-09T14:37:04;72144.00;;;23.82;66.05
23131;BME280;11734;51.046;13.778;2022-09-09T14:39:32;72143.63;;;23.89;67.02
23131;BME280;11734;51.046;13.778;2022-09-09T14:41:59;72158.81;;;24.00;69.31
23131;BME280;11734;51.046;13.778;2022-09-09T14:44:26;72181.22;;;24.07;71.11
23131;BME280;11734;51.046;13.778;2022-09-09T14:46:54;72169.53;;;24.09;70.80
23131;BME280;11734;51.046;13.778;2022-09-09T14:49:21;72166.22;;;24.08;70.59
23131;BME280;11734;51.046;13.778;2022-09-09T14:51:49;72186.38;;;24.05;67.25
23131;BME280;11734;51.046;13.778;2022-09-09T14:54:16;72149.47;;;24.03;67.41
23131;BME280;11734;51.046;13.778;2022-09-09T14:56:44;72151.03;;;23.98;68.78
23131;BME280;11734;51.046;13.778;2022-09-09T14:59:11;72117.56;;;23.87;65.55
23131;BME280;11734;51.046;13.778;2022-09-09T15:01:40;72112.19;;;23.83;66.06
23131;BME280;11734;51.046;13.778;2022-09-09T15:04:10;72110.84;;;23.70;72.19
23131;BME280;11734;51.046;13.778;2022-09-09T15:06:38;72161.22;;;23.33;73.10